createdAt,value
2023-05-21T00:00:48.921Z,15.52
2023-05-21T00:04:01.776Z,14.45
2023-05-21T00:07:15.404Z,15.65
2023-05-21T00:10:28.154Z,14.82
2023-05-21T00:13:40.539Z,18.12
2023-05-21T00:16:53.227Z,16.42
2023-05-21T00:20:07.452Z,15.85
2023-05-21T00:23:21.541Z,16.73
2023-05-21T00:26:34.137Z,17.37
2023-05-21T00:29:47.273Z,13.80
2023-05-21T00:33:02.543Z,16.40
2023-05-21T00:36:15.626Z,15.57
2023-05-21T00:39:28.418Z,15.45
2023-05-21T00:42:41.650Z,14.63
2023-05-21T00:45:56.362Z,17.35
2023-05-21T00:49:09.149Z,16.25
2023-05-21T00:52:21.680Z,15.20
2023-05-21T00:55:34.560Z,16.83
2023-05-21T00:58:47.975Z,16.00
2023-05-21T01:02:05.541Z,13.45
2023-05-21T01:05:18.071Z,16.00
2023-05-21T01:08:30.785Z,17.42
2023-05-21T01:11:45.102Z,16.45
2023-05-21T01:14:59.663Z,14.30
2023-05-21T01:18:12.289Z,14.65
2023-05-21T01:21:25.340Z,15.45
2023-05-21T01:24:38.039Z,15.73
2023-05-21T01:27:51.236Z,17.60
2023-05-21T01:31:19.673Z,17.60
2023-05-21T01:34:42.552Z,19.00
2023-05-21T01:38:16.717Z,17.50
2023-05-21T01:41:29.965Z,16.48
2023-05-21T01:44:42.370Z,18.50
2023-05-21T01:47:55.278Z,17.87
2023-05-21T01:51:07.768Z,15.88
2023-05-21T01:54:22.033Z,15.48
2023-05-21T01:57:34.442Z,15.40
2023-05-21T02:00:47.209Z,23.65
2023-05-21T02:04:00.072Z,15.10
2023-05-21T02:07:14.562Z,21.77
2023-05-21T02:10:27.325Z,18.02
2023-05-21T02:13:42.665Z,15.48
2023-05-21T02:16:55.821Z,19.83
2023-05-21T02:20:12.043Z,18.98
2023-05-21T02:23:25.317Z,15.90
2023-05-21T02:26:37.769Z,16.27
2023-05-21T02:29:50.475Z,14.50
2023-05-21T02:33:02.981Z,17.23
2023-05-21T02:36:19.043Z,16.27
2023-05-21T02:39:31.524Z,15.45
2023-05-21T02:42:44.274Z,15.40
2023-05-21T02:45:57.454Z,15.82
2023-05-21T02:49:10.831Z,13.45
2023-05-21T02:52:24.182Z,14.38
2023-05-21T02:55:37.364Z,19.25
2023-05-21T02:58:49.893Z,13.65
2023-05-21T03:02:02.776Z,16.70
2023-05-21T03:05:15.390Z,16.98
2023-05-21T03:08:28.210Z,16.10
2023-05-21T03:11:41.028Z,15.30
2023-05-21T03:14:53.673Z,14.13
2023-05-21T03:18:06.228Z,13.13
2023-05-21T03:21:22.664Z,16.65
2023-05-21T03:24:35.344Z,15.45
2023-05-21T03:27:48.922Z,14.13
2023-05-21T03:31:05.870Z,17.42
2023-05-21T03:34:20.549Z,14.10
2023-05-21T03:37:33.583Z,14.77
2023-05-21T03:40:46.540Z,14.18
2023-05-21T03:43:58.979Z,18.75
2023-05-21T03:47:12.666Z,15.70
2023-05-21T03:50:25.094Z,14.93
2023-05-21T03:53:37.814Z,15.27
2023-05-21T03:56:50.957Z,14.95
2023-05-21T04:00:06.354Z,14.40
2023-05-21T04:03:28.197Z,13.90
2023-05-21T04:06:42.418Z,12.60
2023-05-21T04:09:55.124Z,12.98
2023-05-21T04:13:07.823Z,13.23
2023-05-21T04:16:20.269Z,13.68
2023-05-21T04:19:33.219Z,12.18
2023-05-21T04:22:45.815Z,13.80
2023-05-21T04:25:59.092Z,12.60
2023-05-21T04:29:11.570Z,16.10
2023-05-21T04:32:24.580Z,12.93
2023-05-21T04:35:37.151Z,13.75
2023-05-21T04:38:50.099Z,13.45
2023-05-21T04:42:03.415Z,14.43
2023-05-21T04:45:17.738Z,12.32
2023-05-21T04:48:30.728Z,11.48
2023-05-21T04:51:43.384Z,13.82
2023-05-21T04:54:55.760Z,14.00
2023-05-21T04:58:10.918Z,10.20
2023-05-21T05:01:23.865Z,11.48
2023-05-21T05:04:36.675Z,13.93
2023-05-21T05:07:49.251Z,9.88
2023-05-21T05:11:02.436Z,12.27
2023-05-21T05:14:14.822Z,10.75
2023-05-21T05:17:27.748Z,13.30
2023-05-21T05:20:40.229Z,12.10
2023-05-21T05:23:52.945Z,11.27
2023-05-21T05:27:06.777Z,11.32
2023-05-21T05:30:20.385Z,11.93
2023-05-21T05:33:32.996Z,16.15
2023-05-21T05:36:45.753Z,10.50
2023-05-21T05:39:58.264Z,11.32
2023-05-21T05:43:10.967Z,13.82
2023-05-21T05:46:23.457Z,14.18
2023-05-21T05:49:37.173Z,11.93
2023-05-21T05:52:49.691Z,11.63
2023-05-21T05:56:02.624Z,10.20
2023-05-21T05:59:16.513Z,12.10
2023-05-21T06:02:32.601Z,10.77
2023-05-21T06:05:45.410Z,15.35
2023-05-21T06:08:57.837Z,13.82
2023-05-21T06:12:14.695Z,14.73
2023-05-21T06:15:27.601Z,12.63
2023-05-21T06:18:41.113Z,12.93
2023-05-21T06:21:53.793Z,13.93
2023-05-21T06:25:07.186Z,9.27
2023-05-21T06:28:19.679Z,12.32
2023-05-21T06:31:33.575Z,11.25
2023-05-21T06:34:46.230Z,11.90
2023-05-21T06:37:58.918Z,8.70
2023-05-21T06:41:11.291Z,8.95
2023-05-21T06:44:26.922Z,13.60
2023-05-21T06:47:41.316Z,10.68
2023-05-21T06:50:54.172Z,15.65
2023-05-21T06:54:07.496Z,9.90
2023-05-21T06:57:20.956Z,12.68
2023-05-21T07:00:33.498Z,10.32
2023-05-21T07:03:46.285Z,11.15
2023-05-21T07:06:58.772Z,14.10
2023-05-21T07:10:11.475Z,13.75
2023-05-21T07:13:23.935Z,14.10
2023-05-21T07:16:36.776Z,12.02
2023-05-21T07:19:49.246Z,11.23
2023-05-21T07:23:02.009Z,13.40
2023-05-21T07:26:14.399Z,12.73
2023-05-21T07:29:27.540Z,12.75
2023-05-21T07:32:40.169Z,10.40
2023-05-21T07:35:52.989Z,12.90
2023-05-21T07:39:06.056Z,9.70
2023-05-21T07:42:19.121Z,10.18
2023-05-21T07:45:31.684Z,9.95
2023-05-21T07:48:44.598Z,10.38
2023-05-21T07:51:57.378Z,11.07
2023-05-21T07:55:10.382Z,10.05
2023-05-21T07:58:23.617Z,11.50
2023-05-21T08:01:37.677Z,9.95
2023-05-21T08:04:50.430Z,12.07
2023-05-21T08:08:02.863Z,10.23
2023-05-21T08:11:15.760Z,9.48
2023-05-21T08:14:28.557Z,13.57
2023-05-21T08:17:41.914Z,9.57
2023-05-21T08:20:55.873Z,10.45
2023-05-21T08:24:08.947Z,10.55
2023-05-21T08:27:21.376Z,9.43
2023-05-21T08:30:34.764Z,13.23
2023-05-21T08:33:53.707Z,10.13
2023-05-21T08:37:06.799Z,9.77
2023-05-21T08:40:26.794Z,12.30
2023-05-21T08:43:39.724Z,8.40
2023-05-21T08:46:52.228Z,9.77
2023-05-21T08:50:05.314Z,8.57
2023-05-21T08:53:27.528Z,10.05
2023-05-21T08:56:45.769Z,11.68
2023-05-21T08:59:59.327Z,9.68
2023-05-21T09:03:13.741Z,7.07
2023-05-21T09:06:26.471Z,8.55
2023-05-21T09:10:05.228Z,8.25
2023-05-21T09:13:18.570Z,10.02
2023-05-21T09:16:31.710Z,8.35
2023-05-21T09:20:18.960Z,11.75
2023-05-21T09:23:31.681Z,11.52
2023-05-21T09:26:44.346Z,9.13
2023-05-21T09:29:58.069Z,9.02
2023-05-21T09:33:11.970Z,7.20
2023-05-21T09:36:24.876Z,9.40
2023-05-21T09:39:37.320Z,10.68
2023-05-21T09:42:54.248Z,7.68
2023-05-21T09:49:26.416Z,8.98
2023-05-21T09:52:41.904Z,8.52
2023-05-21T09:55:56.577Z,7.70
2023-05-21T09:59:08.963Z,7.20
2023-05-21T10:02:22.717Z,8.32
2023-05-21T10:05:35.725Z,10.85
2023-05-21T10:08:48.720Z,7.90
2023-05-21T10:12:01.430Z,8.63
2023-05-21T10:15:17.539Z,9.60
2023-05-21T10:18:30.837Z,9.18
2023-05-21T10:21:43.631Z,7.78
2023-05-21T10:24:56.306Z,9.68
2023-05-21T10:28:08.694Z,7.80
2023-05-21T10:31:21.369Z,10.07
2023-05-21T10:34:33.751Z,8.80
2023-05-21T10:37:46.691Z,10.80
2023-05-21T10:40:59.182Z,7.82
2023-05-21T10:44:36.840Z,9.40
2023-05-21T10:48:27.215Z,8.85
2023-05-21T10:51:42.836Z,8.05
2023-05-21T10:55:11.884Z,8.32
2023-05-21T10:58:39.854Z,9.35
2023-05-21T11:01:55.401Z,9.98
2023-05-21T11:05:08.245Z,8.18
2023-05-21T11:08:27.657Z,9.15
2023-05-21T11:11:53.995Z,7.85
2023-05-21T11:15:07.093Z,12.10
2023-05-21T11:18:19.785Z,11.80
2023-05-21T11:21:33.981Z,8.75
2023-05-21T11:24:47.761Z,10.43
2023-05-21T11:28:05.862Z,10.20
2023-05-21T11:31:24.486Z,8.48
2023-05-21T11:34:46.591Z,15.45
2023-05-21T11:37:59.239Z,10.25
2023-05-21T11:41:11.644Z,12.13
2023-05-21T11:44:50.851Z,8.63
2023-05-21T11:48:03.419Z,9.18
2023-05-21T11:51:16.122Z,7.65
2023-05-21T11:54:33.987Z,8.60
2023-05-21T11:57:48.113Z,9.38
2023-05-21T12:01:00.757Z,8.10
2023-05-21T12:04:13.523Z,8.88
2023-05-21T12:07:32.153Z,10.18
2023-05-21T12:10:46.202Z,8.45
2023-05-21T12:13:58.717Z,7.95
2023-05-21T12:17:13.528Z,8.90
2023-05-21T12:20:27.137Z,8.30
2023-05-21T12:23:39.815Z,9.23
2023-05-21T12:26:52.204Z,10.48
2023-05-21T12:30:05.339Z,9.35
2023-05-21T12:33:18.478Z,8.05
2023-05-21T12:36:34.253Z,12.73
2023-05-21T12:39:47.600Z,8.33
2023-05-21T12:43:00.399Z,8.88
2023-05-21T12:46:17.416Z,9.88
2023-05-21T12:49:38.793Z,8.50
2023-05-21T12:52:54.735Z,10.13
2023-05-21T12:56:16.610Z,7.78
2023-05-21T12:59:28.957Z,12.32
2023-05-21T13:02:42.387Z,9.85
2023-05-21T13:06:01.486Z,8.85
2023-05-21T13:09:14.189Z,8.45
2023-05-21T13:12:28.476Z,8.48
2023-05-21T13:15:41.220Z,10.95
2023-05-21T13:18:53.669Z,10.57
2023-05-21T13:22:07.287Z,9.27
2023-05-21T13:25:21.518Z,9.43
2023-05-21T13:28:34.387Z,8.15
2023-05-21T13:31:46.777Z,8.18
2023-05-21T13:34:59.420Z,8.20
2023-05-21T13:38:11.799Z,7.68
2023-05-21T13:41:24.462Z,9.30
2023-05-21T13:44:36.804Z,8.15
2023-05-21T13:47:49.559Z,9.32
2023-05-21T13:51:01.962Z,8.40
2023-05-21T13:54:15.805Z,9.63
2023-05-21T13:57:30.730Z,7.68
2023-05-21T14:00:43.592Z,10.47
2023-05-21T14:03:56.298Z,9.75
2023-05-21T14:07:08.815Z,10.05
2023-05-21T14:10:21.543Z,7.78
2023-05-21T14:13:33.879Z,10.15
2023-05-21T14:16:47.356Z,8.18
2023-05-21T14:19:59.826Z,6.95
2023-05-21T14:23:12.564Z,8.10
2023-05-21T14:26:27.608Z,7.45
2023-05-21T14:29:41.677Z,8.60
2023-05-21T14:32:56.619Z,11.00
2023-05-21T14:36:10.658Z,7.30
2023-05-21T14:39:23.175Z,8.73
2023-05-21T14:42:35.877Z,11.48
2023-05-21T14:45:49.708Z,7.85
2023-05-21T14:49:03.780Z,8.20
2023-05-21T14:52:16.168Z,12.27
2023-05-21T14:55:29.676Z,9.07
2023-05-21T14:58:42.144Z,8.52
2023-05-21T15:01:54.966Z,11.82
2023-05-21T15:05:10.485Z,9.57
2023-05-21T15:08:23.170Z,8.43
2023-05-21T15:11:36.006Z,8.52
2023-05-21T15:14:50.964Z,7.60
2023-05-21T15:18:03.462Z,9.85
2023-05-21T15:21:16.220Z,8.98
2023-05-21T15:24:28.680Z,8.50
2023-05-21T15:27:41.385Z,8.35
2023-05-21T15:30:53.787Z,8.88
2023-05-21T15:34:06.507Z,8.40
2023-05-21T15:37:19.171Z,7.85
2023-05-21T15:40:32.325Z,8.55
2023-05-21T15:43:46.206Z,9.40
2023-05-21T15:46:58.921Z,8.52
2023-05-21T15:50:12.209Z,8.98
2023-05-21T15:53:24.931Z,7.82
2023-05-21T15:56:37.396Z,8.93
2023-05-21T15:59:50.788Z,8.60
2023-05-21T16:03:03.311Z,10.13
2023-05-21T16:06:16.183Z,9.55
2023-05-21T16:09:28.575Z,8.98
2023-05-21T16:12:41.214Z,7.03
2023-05-21T16:15:53.610Z,7.82
2023-05-21T16:19:06.409Z,7.45
2023-05-21T16:22:20.818Z,10.95
2023-05-21T16:25:35.719Z,7.80
2023-05-21T16:28:48.509Z,8.57
2023-05-21T16:32:01.243Z,8.88
2023-05-21T16:35:13.772Z,7.80
2023-05-21T16:38:26.465Z,7.62
2023-05-21T16:41:38.830Z,10.38
2023-05-21T16:44:51.929Z,9.38
2023-05-21T16:48:04.710Z,8.35
2023-05-21T16:51:17.478Z,7.60
2023-05-21T16:54:29.892Z,10.52
2023-05-21T16:57:42.550Z,12.10
2023-05-21T17:00:54.946Z,9.02
2023-05-21T17:04:07.773Z,8.35
2023-05-21T17:07:20.407Z,7.40
2023-05-21T17:10:33.927Z,8.73
2023-05-21T17:13:48.137Z,11.25
2023-05-21T17:17:00.919Z,8.35
2023-05-21T17:20:13.540Z,9.95
2023-05-21T17:23:26.231Z,8.35
2023-05-21T17:26:38.650Z,8.18
2023-05-21T17:29:52.546Z,8.30
2023-05-21T17:33:06.535Z,10.20
2023-05-21T17:36:19.414Z,10.05
2023-05-21T17:39:31.848Z,9.40
2023-05-21T17:42:44.530Z,8.52
2023-05-21T17:45:56.917Z,11.52
2023-05-21T17:49:09.637Z,10.27
2023-05-21T17:52:22.065Z,9.52
2023-05-21T17:55:34.772Z,14.13
2023-05-21T17:58:47.273Z,11.02
2023-05-21T18:02:01.645Z,12.07
2023-05-21T18:05:14.547Z,9.52
2023-05-21T18:08:27.079Z,10.45
2023-05-21T18:11:39.727Z,11.43
2023-05-21T18:14:52.110Z,9.45
2023-05-21T18:18:04.881Z,11.12
2023-05-21T18:21:17.505Z,11.02
2023-05-21T18:24:30.237Z,11.30
2023-05-21T18:27:42.686Z,11.95
2023-05-21T18:30:57.053Z,14.20
2023-05-21T18:34:09.607Z,11.60
2023-05-21T18:37:22.362Z,9.10
2023-05-21T18:40:35.076Z,11.90
2023-05-21T18:43:47.876Z,11.27
2023-05-21T18:47:00.338Z,11.90
2023-05-21T18:50:14.276Z,10.25
2023-05-21T18:53:26.752Z,11.18
2023-05-21T18:56:39.460Z,14.30
2023-05-21T18:59:51.873Z,11.23
2023-05-21T19:03:04.617Z,13.48
2023-05-21T19:06:17.125Z,16.37
2023-05-21T19:09:29.832Z,15.18
2023-05-21T19:12:43.480Z,12.35
2023-05-21T19:15:57.426Z,14.90
2023-05-21T19:19:09.978Z,17.48
2023-05-21T19:22:26.314Z,15.13
2023-05-21T19:25:38.795Z,14.83
2023-05-21T19:28:53.821Z,13.32
2023-05-21T19:32:07.015Z,15.02
2023-05-21T19:35:20.640Z,15.15
2023-05-21T19:38:33.065Z,12.68
2023-05-21T19:41:45.747Z,15.20
2023-05-21T19:44:58.217Z,16.25
2023-05-21T19:48:11.136Z,22.90
2023-05-21T19:51:23.530Z,12.13
2023-05-21T19:54:36.405Z,12.32
2023-05-21T19:57:48.962Z,15.23
2023-05-21T20:01:03.490Z,14.48
2023-05-21T20:04:16.342Z,13.02
2023-05-21T20:07:28.851Z,13.48
2023-05-21T20:10:41.698Z,16.95
2023-05-21T20:13:54.388Z,15.75
2023-05-21T20:17:07.365Z,11.32
2023-05-21T20:20:22.991Z,16.17
2023-05-21T20:23:35.764Z,12.88
2023-05-21T20:26:48.175Z,13.38
2023-05-21T20:30:00.961Z,16.23
2023-05-21T20:33:13.638Z,19.27
2023-05-21T20:36:27.214Z,11.90
2023-05-21T20:39:39.712Z,13.23
2023-05-21T20:42:54.088Z,13.55
2023-05-21T20:46:06.494Z,12.93
2023-05-21T20:49:19.286Z,13.52
2023-05-21T20:52:31.753Z,12.07
2023-05-21T20:55:47.040Z,15.18
2023-05-21T20:58:59.625Z,14.65
2023-05-21T21:02:12.994Z,15.07
2023-05-21T21:05:25.431Z,16.23
2023-05-21T21:08:40.330Z,15.00
2023-05-21T21:11:52.840Z,15.77
2023-05-21T21:15:06.119Z,16.00
2023-05-21T21:18:18.513Z,15.88
2023-05-21T21:21:31.854Z,18.95
2023-05-21T21:24:44.549Z,14.70
2023-05-21T21:27:57.235Z,16.12
2023-05-21T21:31:09.650Z,11.80
2023-05-21T21:34:24.301Z,15.35
2023-05-21T21:37:36.771Z,11.82
2023-05-21T21:40:49.566Z,11.90
2023-05-21T21:44:02.127Z,12.18
2023-05-21T21:47:14.829Z,13.10
2023-05-21T21:50:27.284Z,12.27
2023-05-21T21:53:39.996Z,11.50
2023-05-21T21:56:52.364Z,10.73
2023-05-21T22:00:17.029Z,11.12
2023-05-21T22:03:34.559Z,11.02
2023-05-21T22:06:46.923Z,13.68
2023-05-21T22:09:59.569Z,11.30
2023-05-21T22:13:12.868Z,14.38
2023-05-21T22:16:25.557Z,13.20
2023-05-21T22:19:37.938Z,11.55
2023-05-21T22:22:50.606Z,10.50
2023-05-21T22:26:03.392Z,12.63
2023-05-21T22:29:16.097Z,9.25
2023-05-21T22:32:28.465Z,8.98
2023-05-21T22:35:41.175Z,8.93
2023-05-21T22:38:53.641Z,11.75
2023-05-21T22:42:06.480Z,10.07
2023-05-21T22:45:19.378Z,9.52
2023-05-21T22:48:32.106Z,7.62
2023-05-21T22:51:45.013Z,9.70
2023-05-21T22:54:58.805Z,8.30
2023-05-21T22:58:11.216Z,8.35
2023-05-21T23:01:24.057Z,7.72
2023-05-21T23:04:43.827Z,10.48
2023-05-21T23:07:56.851Z,9.15
2023-05-21T23:11:09.215Z,6.97
2023-05-21T23:14:22.091Z,8.65
2023-05-21T23:17:34.608Z,9.20
2023-05-21T23:20:47.382Z,7.65
2023-05-21T23:23:59.730Z,10.15
2023-05-21T23:27:12.441Z,11.48
2023-05-21T23:30:24.841Z,9.05
2023-05-21T23:33:37.575Z,9.55
2023-05-21T23:36:49.979Z,10.43
2023-05-21T23:40:02.650Z,9.38
2023-05-21T23:43:15.165Z,9.70
2023-05-21T23:46:27.915Z,8.05
2023-05-21T23:49:40.399Z,6.12
2023-05-21T23:52:53.327Z,7.53
2023-05-21T23:56:06.020Z,8.55
2023-05-21T23:59:18.779Z,8.35
